Time;durP1;ratioP1;P1;durP2;ratioP2;P2;SDS_P1;SDS_P2;PMS_P1;PMS_P2;Temp;Humidity;BMP_temperature;BMP_pressure;BME280_temperature;BME280_humidity;BME280_pressure;Samples;Min_cycle;Max_cycle;Signal;HPM_P1;HPM_P2
2023/01/07 00:01:34;;;;;;;18.02;8.07;;;1.80;54.40;;;;;;5019659;28;20030;-75
2023/01/07 00:04:01;;;;;;;15.95;6.13;;;1.80;54.40;;;;;;5019391;28;20034;-74
2023/01/07 00:06:33;;;;;;;14.63;6.28;;;1.70;54.30;;;;;;5024099;28;20037;-74
2023/01/07 00:08:59;;;;;;;15.70;6.47;;;1.70;54.40;;;;;;5019381;28;20034;-74
2023/01/07 00:11:28;;;;;;;17.08;6.93;;;1.70;55.10;;;;;;5024064;28;20638;-75
2023/01/07 00:13:55;;;;;;;10.82;5.47;;;1.70;54.60;;;;;;5020946;28;20033;-75
2023/01/07 00:16:24;;;;;;;15.15;5.35;;;1.70;54.70;;;;;;5022580;28;20133;-75
2023/01/07 00:18:51;;;;;;;11.88;5.40;;;1.70;54.80;;;;;;5024369;28;20042;-75
2023/01/07 00:21:19;;;;;;;14.43;5.88;;;1.80;54.90;;;;;;5023988;28;20095;-75
2023/01/07 00:23:46;;;;;;;11.23;5.72;;;1.80;54.90;;;;;;5022263;28;20045;-75
2023/01/07 00:26:18;;;;;;;15.30;5.55;;;1.80;54.90;;;;;;5025417;28;20037;-75
2023/01/07 00:28:46;;;;;;;12.23;4.97;;;1.80;55.00;;;;;;5008669;28;20055;-75
2023/01/07 00:31:18;;;;;;;10.63;5.47;;;1.80;54.90;;;;;;5023700;28;20435;-75
2023/01/07 00:34:05;;;;;;;11.55;5.18;;;1.80;54.90;;;;;;5024797;28;21548;-76
2023/01/07 00:36:41;;;;;;;14.30;6.10;;;1.80;54.80;;;;;;5020075;28;20108;-75
2023/01/07 00:39:15;;;;;;;10.55;5.30;;;1.80;54.70;;;;;;5023167;28;20033;-75
2023/01/07 00:42:52;;;;;;;10.60;5.00;;;1.80;54.70;;;;;;5040055;28;20068;-75
2023/01/07 00:44:28;;;;;;;8.98;4.88;;;1.80;54.70;;;;;;5038747;28;20068;-75
2023/01/07 00:46:54;;;;;;;11.82;4.97;;;1.80;54.80;;;;;;5019100;28;20033;-76
2023/01/07 00:49:23;;;;;;;9.85;5.47;;;1.80;54.80;;;;;;5005395;28;20132;-80
2023/01/07 00:51:50;;;;;;;10.63;4.65;;;1.80;54.80;;;;;;4991709;28;20128;-75
2023/01/07 00:54:17;;;;;;;8.55;4.80;;;1.80;55.70;;;;;;5024761;28;20045;-76
2023/01/07 00:56:43;;;;;;;10.23;4.93;;;1.80;56.30;;;;;;5018436;28;20033;-76
2023/01/07 00:59:09;;;;;;;10.30;5.13;;;1.80;56.40;;;;;;5024460;28;20104;-77
2023/01/07 01:01:36;;;;;;;10.25;5.15;;;1.80;56.40;;;;;;5010894;28;20089;-75
2023/01/07 01:04:02;;;;;;;8.25;4.40;;;1.80;56.30;;;;;;5024129;28;20583;-75
2023/01/07 01:06:28;;;;;;;13.75;5.05;;;1.80;56.20;;;;;;4990551;28;20057;-76
2023/01/07 01:08:54;;;;;;;11.40;5.00;;;1.90;56.20;;;;;;5025131;28;20116;-76
2023/01/07 01:11:20;;;;;;;8.90;4.43;;;1.90;56.20;;;;;;5009020;28;20389;-76
2023/01/07 01:13:46;;;;;;;11.68;5.20;;;1.90;56.10;;;;;;5025607;28;20053;-75
2023/01/07 01:16:15;;;;;;;9.10;4.20;;;1.90;56.10;;;;;;5022747;28;20029;-76
2023/01/07 01:18:41;;;;;;;7.88;4.80;;;1.90;56.10;;;;;;5025716;28;20494;-76
2023/01/07 01:21:09;;;;;;;9.63;5.05;;;2.00;56.00;;;;;;5023885;28;20412;-76
2023/01/07 01:23:36;;;;;;;10.10;5.00;;;1.90;56.00;;;;;;5025123;28;20034;-76
2023/01/07 01:26:14;;;;;;;10.77;4.70;;;1.90;55.90;;;;;;5024967;28;20278;-76
2023/01/07 01:28:40;;;;;;;9.52;4.55;;;1.90;55.90;;;;;;5019450;28;20156;-76
2023/01/07 01:31:08;;;;;;;8.52;4.50;;;1.90;55.90;;;;;;5008055;28;20033;-75
2023/01/07 01:33:43;;;;;;;8.95;4.40;;;1.90;55.80;;;;;;5022390;28;20132;-76
2023/01/07 01:36:11;;;;;;;8.40;3.88;;;1.90;55.90;;;;;;5023428;28;20073;-75
2023/01/07 01:38:38;;;;;;;8.10;3.92;;;1.90;55.90;;;;;;5024386;28;20068;-76
2023/01/07 01:41:05;;;;;;;7.78;3.88;;;1.90;56.00;;;;;;5025014;28;20033;-76
2023/01/07 01:43:35;;;;;;;7.35;4.20;;;1.90;56.10;;;;;;5020347;28;20408;-77
2023/01/07 01:46:05;;;;;;;9.30;4.50;;;1.90;56.20;;;;;;5004914;28;20041;-77
2023/01/07 01:48:34;;;;;;;6.80;3.72;;;1.90;56.30;;;;;;5007559;28;20048;-77
2023/01/07 01:51:02;;;;;;;7.32;3.58;;;1.90;56.20;;;;;;5023553;28;20036;-76
2023/01/07 01:53:33;;;;;;;6.30;3.20;;;1.90;56.10;;;;;;5022844;28;20045;-76
2023/01/07 01:56:11;;;;;;;7.80;3.80;;;1.90;56.20;;;;;;5020733;28;20037;-76
2023/01/07 01:58:52;;;;;;;6.55;3.60;;;1.90;56.20;;;;;;5023862;28;20057;-75
2023/01/07 02:01:19;;;;;;;8.25;3.80;;;2.00;56.20;;;;;;5024894;28;20033;-76
2023/01/07 02:03:46;;;;;;;7.65;3.75;;;2.00;56.10;;;;;;5023596;28;20045;-76
2023/01/07 02:06:28;;;;;;;8.40;4.20;;;1.90;56.00;;;;;;5032793;28;20033;-76
2023/01/07 02:08:54;;;;;;;6.45;3.60;;;2.00;56.00;;;;;;5039145;28;20040;-75
2023/01/07 02:11:40;;;;;;;6.30;3.35;;;2.00;55.90;;;;;;4991561;28;20040;-76
2023/01/07 02:14:39;;;;;;;5.28;3.25;;;2.00;55.80;;;;;;5023497;28;20091;-74
2023/01/07 02:17:18;;;;;;;7.10;3.60;;;2.00;55.70;;;;;;5016922;28;20042;-74
2023/01/07 02:19:48;;;;;;;6.15;3.53;;;1.90;55.70;;;;;;5007993;28;20040;-74
2023/01/07 02:22:16;;;;;;;6.38;3.30;;;1.90;55.60;;;;;;5023428;28;20139;-75
2023/01/07 02:25:07;;;;;;;6.35;4.03;;;1.90;55.60;;;;;;5001972;28;20073;-77
2023/01/07 02:27:57;;;;;;;8.02;3.47;;;1.90;55.60;;;;;;5022668;28;20076;-76
2023/01/07 02:30:32;;;;;;;10.00;4.00;;;1.90;55.60;;;;;;5006690;28;20038;-76
2023/01/07 02:33:02;;;;;;;7.03;3.17;;;1.90;55.60;;;;;;5039215;28;20404;-77
2023/01/07 02:35:38;;;;;;;8.18;3.47;;;1.90;55.70;;;;;;5022762;28;20524;-76
2023/01/07 02:38:34;;;;;;;8.88;3.67;;;1.90;55.60;;;;;;5007760;28;20035;-77
2023/01/07 02:41:12;;;;;;;6.97;3.20;;;1.90;55.60;;;;;;5023740;28;20033;-77
2023/01/07 02:43:55;;;;;;;6.82;3.20;;;1.90;55.60;;;;;;5021116;28;20121;-76
2023/01/07 02:46:32;;;;;;;7.25;3.40;;;1.90;55.50;;;;;;5038245;28;20084;-77
2023/01/07 02:49:08;;;;;;;6.43;3.47;;;1.90;55.50;;;;;;4990859;28;20037;-77
2023/01/07 02:51:36;;;;;;;7.88;3.15;;;1.90;56.00;;;;;;5021645;28;20034;-77
2023/01/07 02:54:05;;;;;;;5.75;3.00;;;1.90;55.30;;;;;;5030760;28;20041;-76
2023/01/07 02:56:40;;;;;;;6.07;2.95;;;1.90;55.20;;;;;;5003028;28;20044;-76
2023/01/07 02:59:09;;;;;;;5.75;3.10;;;1.90;55.10;;;;;;5022445;28;20578;-76
2023/01/07 03:01:57;;;;;;;5.60;3.33;;;1.90;55.00;;;;;;5023521;28;20053;-76
2023/01/07 03:04:55;;;;;;;7.63;3.60;;;1.90;55.00;;;;;;5023974;28;20040;-75
2023/01/07 03:07:40;;;;;;;7.57;3.35;;;1.90;55.00;;;;;;5020169;28;20120;-75
2023/01/07 03:10:46;;;;;;;7.80;3.58;;;1.90;55.00;;;;;;5039584;28;20034;-75
2023/01/07 03:13:41;;;;;;;5.70;3.20;;;1.90;55.10;;;;;;5008096;28;20397;-76
2023/01/07 03:16:19;;;;;;;6.53;3.47;;;1.90;55.10;;;;;;4975282;28;20035;-76
2023/01/07 03:18:59;;;;;;;7.60;3.53;;;1.90;55.70;;;;;;4975800;28;20045;-75
2023/01/07 03:21:30;;;;;;;6.15;3.38;;;1.80;55.10;;;;;;4962394;28;20081;-75
2023/01/07 03:23:57;;;;;;;5.85;3.33;;;1.90;55.20;;;;;;4952324;28;20065;-76
2023/01/07 03:26:29;;;;;;;9.60;3.92;;;1.90;55.30;;;;;;4970812;28;20038;-76
2023/01/07 03:28:58;;;;;;;9.30;3.15;;;1.90;55.20;;;;;;4960587;28;20166;-75
2023/01/07 03:31:25;;;;;;;6.35;3.20;;;1.90;55.20;;;;;;4976286;28;20133;-76
2023/01/07 03:33:58;;;;;;;6.57;3.47;;;1.90;55.10;;;;;;4951060;28;20038;-76
2023/01/07 03:36:31;;;;;;;7.18;3.33;;;1.90;55.10;;;;;;4966850;28;20031;-76
2023/01/07 03:38:58;;;;;;;5.95;3.13;;;1.90;55.00;;;;;;4973319;28;20051;-76
2023/01/07 03:44:12;;;;;;;7.65;2.97;;;1.90;55.00;;;;;;4959127;28;20030;-75
2023/01/07 03:46:38;;;;;;;7.32;3.00;;;1.90;55.00;;;;;;4928748;28;20034;-75
2023/01/07 03:49:06;;;;;;;8.85;2.92;;;1.90;55.00;;;;;;4971051;28;20126;-76
2023/01/07 03:51:34;;;;;;;6.30;3.08;;;1.90;55.00;;;;;;4976168;28;20430;-75
2023/01/07 03:54:00;;;;;;;6.40;3.15;;;1.90;54.80;;;;;;5023036;28;20070;-75
2023/01/07 03:56:26;;;;;;;5.93;3.13;;;1.90;54.90;;;;;;5026936;28;20126;-74
2023/01/07 03:58:52;;;;;;;6.15;3.42;;;1.90;54.90;;;;;;5023115;28;20049;-74
2023/01/07 04:01:18;;;;;;;5.82;2.80;;;1.90;55.00;;;;;;5025739;28;20042;-75
2023/01/07 04:03:44;;;;;;;4.65;2.60;;;1.90;54.80;;;;;;5008701;28;20044;-75
2023/01/07 04:06:10;;;;;;;6.32;3.20;;;1.90;54.80;;;;;;5026340;28;20099;-74
2023/01/07 04:08:36;;;;;;;8.55;3.20;;;1.90;54.80;;;;;;5025490;28;20041;-75
2023/01/07 04:11:03;;;;;;;5.80;3.45;;;1.90;54.70;;;;;;5035853;28;20042;-75
2023/01/07 04:13:30;;;;;;;5.43;2.92;;;1.90;54.70;;;;;;5009157;28;20416;-74
2023/01/07 04:15:56;;;;;;;5.20;2.95;;;1.90;54.70;;;;;;5025388;28;20040;-75
2023/01/07 04:18:22;;;;;;;5.53;2.92;;;1.90;54.70;;;;;;5035253;28;20530;-74
2023/01/07 04:20:48;;;;;;;5.80;2.83;;;1.90;54.60;;;;;;5022390;28;20033;-75
2023/01/07 04:23:15;;;;;;;4.40;2.55;;;1.90;54.60;;;;;;5030263;28;20052;-75
2023/01/07 04:25:48;;;;;;;4.38;2.60;;;1.90;54.40;;;;;;5018353;28;20037;-75
2023/01/07 04:28:17;;;;;;;4.35;2.75;;;1.90;54.30;;;;;;5041937;28;20064;-75
2023/01/07 04:30:43;;;;;;;5.78;3.00;;;1.90;54.20;;;;;;5027123;28;20060;-74
2023/01/07 04:33:09;;;;;;;6.00;2.78;;;1.90;54.20;;;;;;5022186;28;20507;-74
2023/01/07 04:35:38;;;;;;;4.65;2.67;;;1.90;54.10;;;;;;5021324;28;20040;-76
2023/01/07 04:38:04;;;;;;;6.90;3.15;;;1.90;54.60;;;;;;5025797;28;20033;-76
2023/01/07 04:40:30;;;;;;;5.68;2.80;;;1.90;54.00;;;;;;5025797;28;20045;-76
2023/01/07 04:42:57;;;;;;;5.22;2.97;;;1.90;54.00;;;;;;5024906;28;20128;-75
2023/01/07 04:45:23;;;;;;;7.93;3.03;;;1.90;53.90;;;;;;5007480;28;20030;-78
2023/01/07 04:47:49;;;;;;;4.60;2.80;;;1.80;53.90;;;;;;5007298;28;20037;-77
2023/01/07 04:50:15;;;;;;;4.72;2.65;;;1.90;54.00;;;;;;5022732;28;20492;-77
2023/01/07 04:52:41;;;;;;;4.75;3.15;;;1.90;54.00;;;;;;5004866;28;20037;-77
2023/01/07 04:55:09;;;;;;;5.75;3.25;;;1.80;53.90;;;;;;5023850;28;20585;-77
2023/01/07 04:57:36;;;;;;;6.28;3.10;;;1.80;53.90;;;;;;5023216;28;20562;-77
2023/01/07 05:00:03;;;;;;;6.05;2.97;;;1.80;53.90;;;;;;5019812;28;20042;-76
2023/01/07 05:02:29;;;;;;;5.20;2.80;;;1.80;53.80;;;;;;5021245;28;20037;-76
2023/01/07 05:04:56;;;;;;;6.65;2.95;;;1.80;53.80;;;;;;5022914;28;20028;-76
2023/01/07 05:07:22;;;;;;;7.43;3.03;;;1.90;53.80;;;;;;5025387;28;20038;-77
2023/01/07 05:09:48;;;;;;;5.90;3.25;;;1.90;53.80;;;;;;5024434;28;20561;-76
2023/01/07 05:12:15;;;;;;;4.80;2.70;;;1.80;53.60;;;;;;5021218;28;20049;-76
2023/01/07 05:14:42;;;;;;;5.32;2.92;;;1.90;53.60;;;;;;5015622;28;20128;-76
2023/01/07 05:17:08;;;;;;;6.28;3.20;;;1.90;53.60;;;;;;5023643;28;20022;-75
2023/01/07 05:19:34;;;;;;;5.03;2.60;;;1.90;53.50;;;;;;5032427;28;20114;-75
2023/01/07 05:22:00;;;;;;;6.40;3.10;;;1.80;53.50;;;;;;5021170;28;20045;-75
2023/01/07 05:24:27;;;;;;;4.93;2.85;;;1.80;53.70;;;;;;5024311;28;20060;-75
2023/01/07 05:26:53;;;;;;;5.03;2.90;;;1.80;53.50;;;;;;4990826;28;20052;-77
2023/01/07 05:29:19;;;;;;;5.75;2.90;;;1.80;53.40;;;;;;5023775;28;20390;-77
2023/01/07 05:31:46;;;;;;;6.13;2.95;;;1.80;53.40;;;;;;5025125;28;20743;-76
2023/01/07 05:34:13;;;;;;;7.18;3.10;;;1.80;53.60;;;;;;5019540;28;20522;-76
2023/01/07 05:36:42;;;;;;;6.55;3.13;;;1.80;53.60;;;;;;5024260;28;20041;-75
2023/01/07 05:39:08;;;;;;;6.10;3.35;;;1.80;53.60;;;;;;5005271;28;20044;-76
2023/01/07 05:41:34;;;;;;;8.55;3.60;;;1.80;53.60;;;;;;5023912;28;20609;-76
2023/01/07 05:44:00;;;;;;;4.70;2.88;;;1.80;53.50;;;;;;5008050;28;20030;-75
2023/01/07 05:46:26;;;;;;;6.38;2.85;;;1.80;53.40;;;;;;5023353;28;20680;-74
2023/01/07 05:48:53;;;;;;;7.28;3.25;;;1.80;53.50;;;;;;5022485;28;20041;-75
2023/01/07 05:51:19;;;;;;;5.10;3.03;;;1.80;53.40;;;;;;5024119;28;20041;-75
2023/01/07 05:53:45;;;;;;;6.75;2.92;;;1.80;53.40;;;;;;5029302;28;20131;-76
2023/01/07 05:56:11;;;;;;;8.57;3.03;;;1.80;53.40;;;;;;5025010;28;20068;-75
2023/01/07 05:58:37;;;;;;;6.95;3.22;;;1.80;53.40;;;;;;5025141;28;20128;-76
2023/01/07 06:01:03;;;;;;;13.57;3.60;;;1.90;53.40;;;;;;5030217;28;20451;-75
2023/01/07 06:03:29;;;;;;;5.25;2.85;;;1.80;53.30;;;;;;5040529;28;20132;-76
2023/01/07 06:05:55;;;;;;;6.10;2.95;;;1.90;53.40;;;;;;5023737;28;20042;-76
2023/01/07 06:08:21;;;;;;;5.63;3.08;;;1.80;53.40;;;;;;5024272;28;20029;-76
2023/01/07 06:10:47;;;;;;;7.05;3.30;;;1.80;53.50;;;;;;5023000;28;20465;-76
2023/01/07 06:13:13;;;;;;;6.32;3.15;;;1.80;53.40;;;;;;5025445;28;20123;-75
2023/01/07 06:15:38;;;;;;;4.93;2.72;;;1.90;53.60;;;;;;5026291;28;20069;-75
2023/01/07 06:18:04;;;;;;;5.63;2.65;;;1.80;53.60;;;;;;5025286;28;20037;-74
2023/01/07 06:20:33;;;;;;;5.40;3.03;;;1.90;53.80;;;;;;5023985;28;20532;-75
2023/01/07 06:23:01;;;;;;;6.13;3.17;;;1.90;53.80;;;;;;5024088;28;20041;-75
2023/01/07 06:25:28;;;;;;;5.65;3.03;;;1.90;53.80;;;;;;5040963;28;20037;-75
2023/01/07 06:27:56;;;;;;;5.20;2.65;;;1.90;53.80;;;;;;5024628;28;20064;-75
2023/01/07 06:30:23;;;;;;;5.18;3.00;;;1.90;53.70;;;;;;5025114;28;20038;-75
2023/01/07 06:32:49;;;;;;;6.63;3.08;;;2.00;53.70;;;;;;5033260;28;20613;-75
2023/01/07 06:35:15;;;;;;;5.47;2.80;;;2.00;53.70;;;;;;5025063;28;20065;-75
2023/01/07 06:37:40;;;;;;;6.18;3.05;;;2.00;53.60;;;;;;5025543;28;20120;-76
2023/01/07 06:40:07;;;;;;;8.95;3.28;;;2.00;53.60;;;;;;5024720;28;20552;-75
2023/01/07 06:42:34;;;;;;;6.80;2.88;;;2.00;53.70;;;;;;5024343;28;20034;-75
2023/01/07 06:44:59;;;;;;;6.15;3.72;;;2.00;53.70;;;;;;5015706;28;20128;-75
2023/01/07 06:47:25;;;;;;;6.25;3.47;;;2.00;53.70;;;;;;5027728;28;20131;-74
2023/01/07 06:49:51;;;;;;;5.55;3.10;;;2.00;53.60;;;;;;5027928;28;20103;-74
2023/01/07 06:52:17;;;;;;;6.50;3.13;;;2.00;53.60;;;;;;5028406;28;20045;-75
2023/01/07 06:54:43;;;;;;;6.63;3.38;;;2.00;53.40;;;;;;5027665;28;20030;-75
2023/01/07 06:57:09;;;;;;;4.82;2.67;;;2.00;53.30;;;;;;5011457;28;20032;-75
2023/01/07 06:59:35;;;;;;;5.00;2.60;;;2.00;53.30;;;;;;5028070;28;20464;-74
2023/01/07 07:02:01;;;;;;;4.85;3.03;;;2.00;53.20;;;;;;5028808;28;20649;-75
2023/01/07 07:04:27;;;;;;;5.55;3.08;;;2.00;53.20;;;;;;5024803;28;20052;-75
2023/01/07 07:06:53;;;;;;;3.97;2.75;;;2.00;53.10;;;;;;5027053;28;20040;-75
2023/01/07 07:09:19;;;;;;;5.85;2.88;;;2.10;53.20;;;;;;5027875;28;20084;-76
2023/01/07 07:11:45;;;;;;;4.75;2.70;;;2.00;53.10;;;;;;5028047;28;20034;-75
2023/01/07 07:14:11;;;;;;;7.95;3.10;;;2.10;53.10;;;;;;5026470;28;20034;-75
2023/01/07 07:16:37;;;;;;;5.85;2.83;;;2.10;53.00;;;;;;5029387;28;20025;-76
2023/01/07 07:19:03;;;;;;;5.45;3.00;;;2.10;53.00;;;;;;5028203;28;20520;-76
2023/01/07 07:21:28;;;;;;;6.20;3.00;;;2.10;52.90;;;;;;5027034;28;20037;-85
2023/01/07 07:23:54;;;;;;;6.20;3.00;;;2.10;52.80;;;;;;5025747;28;20034;-79
2023/01/07 07:26:20;;;;;;;7.13;2.90;;;2.10;52.80;;;;;;5026337;28;20033;-79
2023/01/07 07:28:46;;;;;;;5.35;2.80;;;2.10;52.70;;;;;;5026764;28;20045;-76
2023/01/07 07:31:12;;;;;;;5.25;2.78;;;2.10;52.70;;;;;;5027342;28;20107;-82
2023/01/07 07:33:38;;;;;;;4.20;2.25;;;2.30;70.70;;;;;;5018312;28;20044;-79
2023/01/07 07:36:04;;;;;;;6.60;2.88;;;3.00;80.70;;;;;;5021189;28;20051;-78
2023/01/07 07:38:30;;;;;;;5.68;2.90;;;3.00;69.80;;;;;;5023679;28;20041;-74
2023/01/07 07:40:56;;;;;;;5.78;2.90;;;3.10;65.10;;;;;;5023888;28;20057;-79
2023/01/07 07:43:22;;;;;;;4.65;2.83;;;3.20;65.30;;;;;;5022356;28;20045;-78
2023/01/07 07:45:48;;;;;;;7.75;3.17;;;3.30;63.30;;;;;;5024675;28;20036;-82
2023/01/07 07:48:15;;;;;;;5.90;3.15;;;3.30;61.20;;;;;;5022255;28;20025;-82
2023/01/07 07:50:41;;;;;;;6.72;3.40;;;3.30;59.40;;;;;;5021877;28;20120;-85
2023/01/07 07:53:08;;;;;;;5.72;3.28;;;3.30;58.00;;;;;;5008164;28;20033;-86
2023/01/07 07:55:38;;;;;;;8.75;3.67;;;3.30;57.20;;;;;;5023232;28;20067;-78
2023/01/07 07:58:05;;;;;;;5.03;3.00;;;3.20;56.40;;;;;;5021553;28;20037;-76
2023/01/07 08:00:31;;;;;;;8.25;3.75;;;3.20;55.90;;;;;;5017677;28;20492;-76
2023/01/07 08:02:58;;;;;;;6.00;3.03;;;3.20;55.60;;;;;;5021471;28;20042;-76
2023/01/07 08:05:24;;;;;;;5.57;3.50;;;3.20;55.40;;;;;;5022258;28;20400;-83
2023/01/07 08:07:50;;;;;;;5.88;3.33;;;3.20;55.20;;;;;;5022448;28;20036;-77
2023/01/07 08:10:17;;;;;;;6.50;3.30;;;3.20;55.10;;;;;;5022592;28;20072;-78
2023/01/07 08:12:43;;;;;;;4.57;2.95;;;3.20;55.10;;;;;;5022118;28;20034;-79
2023/01/07 08:15:09;;;;;;;6.53;3.42;;;3.20;55.00;;;;;;5019075;28;20515;-78
2023/01/07 08:17:35;;;;;;;6.35;3.60;;;3.30;54.80;;;;;;5021178;28;20508;-78
2023/01/07 08:20:02;;;;;;;3.95;3.00;;;3.30;54.70;;;;;;5020787;28;20149;-73
2023/01/07 08:22:28;;;;;;;5.05;3.10;;;3.40;70.80;;;;;;5020736;28;20129;-77
2023/01/07 08:24:54;;;;;;;4.03;2.90;;;3.80;69.30;;;;;;5021876;28;20136;-78
2023/01/07 08:27:20;;;;;;;4.45;3.10;;;3.90;64.80;;;;;;4989013;28;20523;-77
2023/01/07 08:29:46;;;;;;;4.93;2.55;;;3.90;61.90;;;;;;5021809;28;20037;-79
2023/01/07 08:32:12;;;;;;;5.40;3.08;;;4.00;59.60;;;;;;5020826;28;20724;-77
2023/01/07 08:34:38;;;;;;;5.93;3.08;;;4.00;58.00;;;;;;5022490;28;20152;-78
2023/01/07 08:37:04;;;;;;;6.43;3.63;;;4.00;56.70;;;;;;5005515;28;20037;-78
2023/01/07 08:39:30;;;;;;;6.03;3.08;;;4.00;55.90;;;;;;5022082;28;20075;-78
2023/01/07 08:41:56;;;;;;;5.72;3.20;;;4.00;55.40;;;;;;5021808;28;20038;-77
2023/01/07 08:44:22;;;;;;;5.32;3.28;;;4.00;55.00;;;;;;5021166;28;20145;-77
2023/01/07 08:46:48;;;;;;;4.97;3.05;;;3.90;54.50;;;;;;5021693;28;20033;-77
2023/01/07 08:49:14;;;;;;;5.20;2.80;;;3.90;54.40;;;;;;5020478;28;20065;-76
2023/01/07 08:51:39;;;;;;;5.85;3.13;;;4.00;54.10;;;;;;5022049;28;20389;-77
2023/01/07 08:54:05;;;;;;;4.40;3.05;;;3.90;53.70;;;;;;5021451;28;20045;-75
2023/01/07 08:56:32;;;;;;;5.18;2.90;;;3.90;53.50;;;;;;5014546;28;20041;-76
2023/01/07 08:58:59;;;;;;;6.68;3.20;;;3.90;53.50;;;;;;5022840;28;20052;-75
2023/01/07 09:01:25;;;;;;;4.90;3.17;;;3.90;53.50;;;;;;5022177;28;20053;-75
2023/01/07 09:03:51;;;;;;;7.28;3.22;;;3.90;53.40;;;;;;5022349;28;20037;-74
2023/01/07 09:06:16;;;;;;;6.25;3.45;;;3.80;53.40;;;;;;5021309;28;20436;-76
2023/01/07 09:08:42;;;;;;;5.53;2.92;;;3.80;53.50;;;;;;5020635;28;20476;-75
2023/01/07 09:11:08;;;;;;;6.30;3.00;;;3.80;53.40;;;;;;5021289;28;20033;-75
2023/01/07 09:13:34;;;;;;;4.63;3.10;;;3.80;53.40;;;;;;5019652;28;20051;-75
2023/01/07 09:16:00;;;;;;;5.72;3.45;;;3.80;53.20;;;;;;5021000;28;20115;-76
2023/01/07 09:18:26;;;;;;;5.68;3.53;;;3.80;53.10;;;;;;5021265;28;20041;-77
2023/01/07 09:20:52;;;;;;;6.65;3.15;;;3.80;53.10;;;;;;5021523;28;20087;-76
2023/01/07 09:23:18;;;;;;;6.00;3.75;;;3.70;53.10;;;;;;5021487;28;20418;-77
2023/01/07 09:25:44;;;;;;;5.63;3.13;;;3.70;53.20;;;;;;5019883;28;20033;-75
2023/01/07 09:28:10;;;;;;;6.18;3.00;;;3.70;53.10;;;;;;5020571;28;20115;-75
2023/01/07 09:30:36;;;;;;;5.15;3.03;;;3.70;52.90;;;;;;5020962;28;20083;-76
2023/01/07 09:33:03;;;;;;;4.70;2.90;;;3.70;52.80;;;;;;5018044;28;20513;-75
2023/01/07 09:35:29;;;;;;;5.07;3.10;;;3.70;52.80;;;;;;5021412;28;20551;-76
2023/01/07 09:37:54;;;;;;;4.65;3.00;;;3.70;52.90;;;;;;5021679;28;20029;-75
2023/01/07 09:40:27;;;;;;;4.88;3.20;;;3.70;52.70;;;;;;5023482;28;20128;-75
2023/01/07 09:43:06;;;;;;;6.38;3.13;;;3.60;52.90;;;;;;5021080;28;20096;-75
2023/01/07 09:45:45;;;;;;;5.65;3.40;;;3.60;52.40;;;;;;5019333;28;20036;-76
2023/01/07 09:48:34;;;;;;;6.05;3.38;;;3.60;52.60;;;;;;5019267;28;20041;-75
2023/01/07 09:51:18;;;;;;;5.97;3.30;;;3.60;52.60;;;;;;5020796;28;20101;-76
2023/01/07 09:53:53;;;;;;;6.70;3.35;;;3.60;52.40;;;;;;5018986;28;20506;-73
2023/01/07 09:56:33;;;;;;;5.63;3.17;;;3.50;52.40;;;;;;5018531;28;20030;-77
2023/01/07 09:59:01;;;;;;;7.32;3.00;;;3.50;52.20;;;;;;5039007;28;20037;-75
2023/01/07 10:01:39;;;;;;;5.38;2.97;;;3.50;52.20;;;;;;5018779;28;20103;-75
2023/01/07 10:04:17;;;;;;;5.97;3.20;;;3.40;51.80;;;;;;5014692;28;20075;-78
2023/01/07 10:06:56;;;;;;;7.07;3.45;;;3.40;51.30;;;;;;5016547;28;20080;-75
2023/01/07 10:09:39;;;;;;;6.65;3.35;;;3.40;50.80;;;;;;5016428;28;20099;-75
2023/01/07 10:12:12;;;;;;;6.72;3.25;;;3.30;50.40;;;;;;5017406;28;20115;-76
2023/01/07 10:14:50;;;;;;;5.50;3.58;;;3.30;50.00;;;;;;5015761;28;20417;-76
2023/01/07 10:17:34;;;;;;;5.65;3.42;;;3.20;49.60;;;;;;5015672;28;20561;-76
2023/01/07 10:20:24;;;;;;;7.65;3.38;;;3.20;49.50;;;;;;5017591;28;20037;-75
2023/01/07 10:22:59;;;;;;;5.25;3.20;;;3.10;49.30;;;;;;5018029;28;20041;-76
2023/01/07 10:25:36;;;;;;;5.90;3.30;;;3.10;49.20;;;;;;5020008;28;20467;-74
2023/01/07 10:28:17;;;;;;;7.10;3.58;;;3.10;49.20;;;;;;5019902;28;20060;-77
2023/01/07 10:30:45;;;;;;;6.80;3.20;;;3.10;49.30;;;;;;5023719;28;20042;-75
2023/01/07 10:33:14;;;;;;;7.18;4.22;;;3.00;49.20;;;;;;5021527;28;20041;-77
2023/01/07 10:35:40;;;;;;;5.35;2.90;;;3.00;49.20;;;;;;5023558;28;20115;-76
2023/01/07 10:38:14;;;;;;;6.30;3.33;;;3.00;49.30;;;;;;5023210;28;20037;-77
2023/01/07 10:40:47;;;;;;;7.85;3.28;;;3.00;49.20;;;;;;5022827;28;20037;-77
2023/01/07 10:43:37;;;;;;;5.90;3.42;;;3.00;49.30;;;;;;4985238;28;20078;-77
2023/01/07 10:46:39;;;;;;;6.72;3.70;;;3.00;49.20;;;;;;5022753;28;20570;-76
2023/01/07 10:49:18;;;;;;;6.22;3.45;;;2.90;49.20;;;;;;5023077;28;20038;-77
2023/01/07 10:51:59;;;;;;;7.45;3.20;;;2.90;49.20;;;;;;5022421;28;20045;-77
2023/01/07 10:54:37;;;;;;;7.15;3.35;;;2.90;49.20;;;;;;5022696;28;20095;-80
2023/01/07 10:57:11;;;;;;;6.63;3.78;;;2.90;49.10;;;;;;5023333;28;20042;-76
2023/01/07 10:59:37;;;;;;;5.53;3.42;;;2.90;49.10;;;;;;5023276;28;20040;-74
2023/01/07 11:02:10;;;;;;;6.00;3.45;;;2.90;48.90;;;;;;5022442;28;21422;-76
2023/01/07 11:04:35;;;;;;;7.22;3.85;;;2.80;48.80;;;;;;5022253;28;20037;-77
2023/01/07 11:07:20;;;;;;;7.35;3.70;;;2.80;48.80;;;;;;5022735;28;20084;-78
2023/01/07 11:09:47;;;;;;;4.78;3.28;;;2.80;48.90;;;;;;5017654;28;20918;-80
2023/01/07 11:12:31;;;;;;;7.13;3.72;;;2.80;48.80;;;;;;5020587;28;20049;-80
2023/01/07 11:14:59;;;;;;;6.10;3.67;;;2.80;48.90;;;;;;5019690;28;20045;-82
2023/01/07 11:17:39;;;;;;;6.28;3.53;;;2.70;48.80;;;;;;5017490;28;20495;-78
2023/01/07 11:20:05;;;;;;;8.70;4.00;;;2.70;48.80;;;;;;5017701;28;20026;-74
2023/01/07 11:22:34;;;;;;;6.50;3.50;;;2.70;48.90;;;;;;5016351;28;20447;-80
2023/01/07 11:25:20;;;;;;;7.53;3.83;;;2.70;49.70;;;;;;5020011;28;20049;-78
2023/01/07 11:27:46;;;;;;;6.90;3.83;;;2.80;51.40;;;;;;5019619;28;20093;-77
2023/01/07 11:30:26;;;;;;;8.93;4.20;;;2.90;51.50;;;;;;5019973;28;20061;-75
2023/01/07 11:32:58;;;;;;;8.63;4.30;;;2.90;51.60;;;;;;5022037;28;20045;-75
2023/01/07 11:35:27;;;;;;;8.32;4.50;;;2.90;51.30;;;;;;5022917;28;20187;-74
2023/01/07 11:37:53;;;;;;;9.48;4.85;;;2.90;50.90;;;;;;5024570;28;20416;-75
2023/01/07 11:40:23;;;;;;;8.50;4.72;;;2.90;50.30;;;;;;5023411;28;20401;-75
2023/01/07 11:42:56;;;;;;;10.55;5.03;;;2.90;49.80;;;;;;5022533;28;20189;-74
2023/01/07 11:45:24;;;;;;;7.80;4.75;;;2.90;49.50;;;;;;5023237;28;20451;-76
2023/01/07 11:48:06;;;;;;;10.02;5.38;;;2.80;49.20;;;;;;5022778;28;20412;-75
2023/01/07 11:50:53;;;;;;;7.60;4.63;;;2.80;49.20;;;;;;5025653;28;20531;-74
2023/01/07 11:53:33;;;;;;;10.63;5.78;;;2.80;49.20;;;;;;5020564;28;20033;-75
2023/01/07 11:56:08;;;;;;;11.52;5.43;;;2.80;49.00;;;;;;5023396;28;20523;-77
2023/01/07 11:58:46;;;;;;;9.45;5.07;;;2.80;48.90;;;;;;5024076;28;20096;-72
2023/01/07 12:01:22;;;;;;;10.35;5.30;;;2.70;48.80;;;;;;5023891;28;20061;-72
2023/01/07 12:03:51;;;;;;;10.25;5.47;;;2.70;48.90;;;;;;5022066;28;20044;-72
2023/01/07 12:06:29;;;;;;;10.60;5.43;;;2.70;48.90;;;;;;5021793;28;20037;-74
2023/01/07 12:09:14;;;;;;;12.85;5.32;;;2.70;49.00;;;;;;5022561;28;20038;-71
2023/01/07 12:11:43;;;;;;;9.05;5.47;;;2.70;49.10;;;;;;5021632;28;20086;-74
2023/01/07 12:14:24;;;;;;;9.98;5.47;;;2.70;49.10;;;;;;5042171;28;20037;-71
2023/01/07 12:16:51;;;;;;;8.25;5.30;;;2.70;49.10;;;;;;5041576;28;20041;-74
2023/01/07 12:19:40;;;;;;;11.68;5.47;;;2.70;49.00;;;;;;5026655;28;20124;-72
2023/01/07 12:22:35;;;;;;;11.63;5.40;;;2.70;49.10;;;;;;5023631;28;20030;-72
2023/01/07 12:25:38;;;;;;;10.07;5.25;;;2.70;49.00;;;;;;5025763;28;20044;-76
2023/01/07 12:28:18;;;;;;;8.23;5.18;;;2.70;49.00;;;;;;5024198;28;20444;-74
2023/01/07 12:30:58;;;;;;;9.07;4.75;;;2.70;49.10;;;;;;5025108;28;20029;-72
2023/01/07 12:33:46;;;;;;;11.57;5.75;;;2.70;49.10;;;;;;5024694;28;20069;-73
2023/01/07 12:36:21;;;;;;;12.35;5.05;;;2.60;49.10;;;;;;5026310;28;20034;-74
2023/01/07 12:38:56;;;;;;;10.50;5.07;;;2.60;49.10;;;;;;5024773;28;20516;-73
2023/01/07 12:41:26;;;;;;;10.27;5.75;;;2.60;49.10;;;;;;5026129;28;20025;-72
2023/01/07 12:44:11;;;;;;;10.00;5.00;;;2.60;49.10;;;;;;5026119;28;20025;-73
2023/01/07 12:46:55;;;;;;;9.73;5.15;;;2.60;50.00;;;;;;5026118;28;20049;-75
2023/01/07 12:49:27;;;;;;;15.70;4.95;;;2.60;51.60;;;;;;5022477;28;20033;-73
2023/01/07 12:52:03;;;;;;;9.32;4.65;;;2.60;53.00;;;;;;5023312;28;20115;-74
2023/01/07 12:55:12;;;;;;;10.73;4.60;;;2.60;54.00;;;;;;5024628;28;20072;-74
2023/01/07 12:57:40;;;;;;;12.10;5.03;;;2.70;54.80;;;;;;5023922;28;20557;-73
2023/01/07 13:00:11;;;;;;;9.68;4.65;;;2.80;55.50;;;;;;5023879;28;20039;-73
2023/01/07 13:02:50;;;;;;;9.07;4.97;;;2.80;55.70;;;;;;5022828;28;20033;-73
2023/01/07 13:05:40;;;;;;;12.57;4.93;;;2.90;56.00;;;;;;5018423;28;20377;-73
2023/01/07 13:08:32;;;;;;;9.20;4.82;;;2.90;56.20;;;;;;5024391;28;20563;-74
2023/01/07 13:11:13;;;;;;;9.85;5.50;;;2.90;56.20;;;;;;5039800;28;20416;-73
2023/01/07 13:13:45;;;;;;;12.80;5.88;;;2.90;56.30;;;;;;5024957;28;20037;-73
2023/01/07 13:16:11;;;;;;;10.23;4.93;;;3.00;56.40;;;;;;5025294;28;20033;-73
2023/01/07 13:18:37;;;;;;;9.38;4.65;;;3.00;56.40;;;;;;5024779;28;20037;-72